METAR Data

Data at: 1852 UTC 21 Nov 2018

METAR for:KIZG (Fryeburg/Eastern Slo, ME, US)
Text:KIZG 211847Z AUTO 00000KT 2SM -SN BR BKN019 OVC025 M01/M03 A2973 RMK AO2 P0000 T10111028
Temperature: -1.1°C ( 30°F)
Dewpoint: -2.8°C ( 27°F) [RH = 88%]
Pressure (altimeter):29.73 inches Hg (1006.9 mb)
Winds:calm
Visibility: 2.00 sm ( 3.22 km)
Ceiling:1900 feet AGL
Clouds: broken clouds at 1900 feet AGL, overcast cloud deck at 2500 feet AGL
Weather:-SN BR (light snow, mist)
QC Flag:automated observation with no human augmentation